ADDS METAR Data INFO
IDs: Format: Raw Decoded Include TAF

Data at: 2344 UTC 15 Dec 2017

KJAU 152335Z AUTO 00000KT 10SM CLR M03/M06 A3018 RMK A01
KJAU 152315Z AUTO 00000KT 10SM CLR M02/M06 A3017 RMK A01
KJAU 152255Z AUTO 00000KT 10SM CLR M02/M07 A3017 RMK A01
KJAU 152235Z AUTO 00000KT 10SM CLR M01/M07 A3015 RMK A01
KJAU 152215Z AUTO 00000KT 10SM CLR 00/M07 A3014 RMK A01
KJAU 152155Z AUTO 00000KT 10SM SCT035 01/M07 A3014 RMK A01
KJAU 152135Z AUTO 00000KT 10SM BKN034 01/M07 A3014 RMK A01
KJAU 152115Z AUTO VRB03KT 10SM FEW035 02/M07 A3013 RMK A01
KJAU 152055Z AUTO 00000KT 10SM CLR 02/M06 A3013 RMK A01
KJAU 152035Z AUTO VRB04KT 10SM SCT032 02/M06 A3013 RMK A01
KJAU 152015Z AUTO VRB04KT 10SM BKN033 02/M06 A3012 RMK A01
KJAU 151955Z AUTO VRB05G11KT 10SM BKN033 02/M06 A3011 RMK A01
KJAU 151935Z AUTO VRB05G12KT 10SM BKN033 02/M06 A3011 RMK A01
KJAU 151915Z AUTO 22010KT 10SM BKN033 03/M06 A3011 RMK A01
KJAU 151855Z AUTO 00000G10KT 10SM SCT033 02/M07 A3011 RMK A01
KJAU 151835Z AUTO 00000G11KT 10SM FEW032 02/M07 A3011 RMK A01
KJAU 151815Z AUTO VRB03KT 10SM BKN032 02/M07 A3011 RMK A01
KJAU 151755Z AUTO 00000G12KT 10SM OVC031 01/M07 A3012 RMK A01
KJAU 151735Z AUTO VRB04G13KT 10SM OVC031 01/M07 A3013 RMK A01
KJAU 151715Z AUTO VRB04G10KT 10SM OVC030 01/M06 A3013 RMK A01
KJAU 151655Z AUTO VRB05G10KT 10SM OVC031 01/M06 A3013 RMK A01
KJAU 151635Z AUTO 00000KT 10SM OVC031 01/M07 A3013 RMK A01
KJAU 151615Z AUTO VRB04KT 10SM OVC032 01/M06 A3013 RMK A01
KJAU 151555Z AUTO VRB05KT 10SM OVC032 01/M06 A3012 RMK A01
KJAU 151535Z AUTO VRB04G11KT 10SM OVC031 01/M06 A3012 RMK A01
KJAU 151515Z AUTO 00000KT 10SM OVC028 01/M05 A3011 RMK A01
KJAU 151455Z AUTO VRB04KT 10SM OVC025 01/M05 A3011 RMK A01
KJAU 151435Z AUTO VRB04KT 10SM OVC027 01/M05 A3010 RMK A01
KJAU 151415Z AUTO 00000KT 10SM OVC027 01/M05 A3009 RMK A01
KJAU 151355Z AUTO VRB05KT 10SM OVC027 01/M05 A3007 RMK A01
KJAU 151335Z AUTO VRB04G10KT 10SM OVC028 01/M05 A3007 RMK A01
KJAU 151315Z AUTO 00000KT 10SM OVC029 01/M05 A3006 RMK A01
KJAU 151255Z AUTO 00000KT 10SM OVC030 01/M05 A3005 RMK A01
KJAU 151235Z AUTO 00000KT 10SM OVC030 01/M05 A3004 RMK A01
KJAU 151215Z AUTO 00000KT 10SM OVC030 01/M05 A3005 RMK A01
KJAU 151155Z AUTO 00000KT 10SM OVC032 01/M05 A3004 RMK A01
KJAU 151135Z AUTO 00000KT 10SM OVC032 01/M04 A3004 RMK A01
KJAU 151115Z AUTO 00000KT 10SM OVC032 01/M04 A3003 RMK A01
KJAU 151055Z AUTO 00000KT 10SM OVC031 00/M04 A3003 RMK A01
KJAU 151035Z AUTO 00000KT 10SM OVC031 M00/M02 A3003 RMK A01
KJAU 151015Z AUTO 00000KT 10SM OVC031 00/M03 A3002 RMK A01
KJAU 150955Z AUTO 00000KT 10SM OVC030 M00/M03 A3004 RMK A01
KJAU 150935Z AUTO 00000KT 10SM OVC030 M00/M03 A3003 RMK A01
KJAU 150915Z AUTO 00000KT 10SM OVC031 M00/M02 A3003 RMK A01
KJAU 150855Z AUTO 00000KT 10SM OVC031 M00/M02 A3004 RMK A01
KJAU 150835Z AUTO 00000KT 10SM OVC031 M01/M02 A3004 RMK A01
KJAU 150815Z AUTO 00000KT 10SM OVC031 M01/M02 A3005 RMK A01
KJAU 150755Z AUTO 00000KT 10SM OVC031 M01/M02 A3005 RMK A01
KJAU 150735Z AUTO 00000KT 10SM OVC031 M01/M03 A3005 RMK A01
KJAU 150715Z AUTO 00000KT 10SM OVC032 M01/M02 A3005 RMK A01
KJAU 150655Z AUTO 00000KT 10SM OVC033 M01/M03 A3005 RMK A01
KJAU 150635Z AUTO 00000KT 10SM OVC031 M01/M03 A3004 RMK A01
KJAU 150615Z AUTO 00000KT 10SM OVC030 M02/M03 A3005 RMK A01
KJAU 150555Z AUTO 00000KT 10SM OVC031 M02/M04 A3005 RMK A01
KJAU 150535Z AUTO 00000KT 10SM OVC031 M03/M04 A3006 RMK A01
KJAU 150515Z AUTO 00000KT 10SM OVC031 M02/M04 A3006 RMK A01
KJAU 150455Z AUTO 00000KT 10SM OVC031 M03/M04 A3007 RMK A01
KJAU 150435Z AUTO 00000KT 10SM BKN030 BKN037 M03/M04 A3007 RMK A01
KJAU 150415Z AUTO 00000KT 10SM FEW030 FEW042 M03/M05 A3006 RMK A01
KJAU 150355Z AUTO 00000KT 10SM BKN030 BKN042 M02/M05 A3006 RMK A01
KJAU 150335Z AUTO 00000KT 10SM SCT030 SCT043 M02/M04 A3007 RMK A01
KJAU 150315Z AUTO 00000KT 10SM FEW043 M02/M04 A3006 RMK A01
KJAU 150255Z AUTO 00000KT 10SM FEW030 FEW044 M02/M04 A3005 RMK A01
KJAU 150235Z AUTO 00000KT 10SM CLR M02/M04 A3005 RMK A01
KJAU 150215Z AUTO 00000KT 10SM CLR M01/M04 A3005 RMK A01
KJAU 150155Z AUTO 00000KT 10SM FEW038 00/M04 A3005 RMK A01
KJAU 150135Z AUTO VRB03KT 10SM BKN036 01/M04 A3005 RMK A01
KJAU 150115Z AUTO 00000KT 10SM OVC036 00/M04 A3004 RMK A01
KJAU 150055Z AUTO 00000KT 10SM OVC037 01/M04 A3004 RMK A01
KJAU 150035Z AUTO 00000KT 10SM BKN034 OVC040 02/M04 A3004 RMK A01
KJAU 150015Z AUTO 3.00000003KT 10SM BKN035 BKN040 02/M04 A3004 RMK A01
KJAU 142355Z AUTO 04007KT 10SM CLR 02/M04 A3002 RMK A01
KJAU 142335Z AUTO 06005KT 10SM CLR 02/M04 A3003 RMK A01
KJAU 142315Z AUTO 08004KT 10SM FEW041 02/M03 A3002 RMK A01
KJAU 142255Z AUTO 00000KT 10SM CLR 03/M03 A3002 RMK A01
KJAU 142235Z AUTO 00000KT 10SM FEW036 04/M03 A3001 RMK A01
KJAU 142215Z AUTO 00000KT 10SM BKN035 04/M03 A3001 RMK A01
KJAU 142155Z AUTO 00000KT 10SM BKN035 05/M03 A3000 RMK A01
KJAU 142135Z AUTO 00000KT 10SM FEW038 05/M03 A2999 RMK A01
KJAU 142115Z AUTO VRB05KT 10SM FEW039 06/M03 A2998 RMK A01
KJAU 142055Z AUTO VRB05KT 10SM FEW042 06/M03 A2998 RMK A01
KJAU 142035Z AUTO 00000KT 10SM BKN037 05/M03 A2997 RMK A01
KJAU 142015Z AUTO VRB04KT 10SM OVC037 05/M03 A2998 RMK A01
KJAU 141955Z AUTO VRB05KT 10SM OVC039 05/M03 A2997 RMK A01
KJAU 141935Z AUTO VRB04KT 10SM BKN040 06/M03 A2997 RMK A01
KJAU 141915Z AUTO VRB04G10KT 10SM CLR 06/M03 A2996 RMK A01
KJAU 141855Z AUTO 04006KT 10SM CLR 06/M03 A2996 RMK A01
KJAU 141835Z AUTO 04005KT 10SM CLR 06/M03 A2996 RMK A01
KJAU 141815Z AUTO 02004KT 10SM FEW037 06/M03 A2996 RMK A01
KJAU 141755Z AUTO 03005KT 10SM FEW037 05/M03 A2996 RMK A01
KJAU 141735Z AUTO VRB03KT 10SM CLR 06/M03 A2995 RMK A01
KJAU 141715Z AUTO 00000KT 10SM CLR 06/M03 A2995 RMK A01
KJAU 141655Z AUTO 22003KT 10SM CLR 06/M03 A2996 RMK A01
KJAU 141635Z AUTO 00000KT 10SM CLR 06/M03 A2997 RMK A01
KJAU 141615Z AUTO 00000KT 10SM FEW033 06/M03 A2997 RMK A01
KJAU 141555Z AUTO 32005KT 10SM BKN032 05/M03 A2996 RMK A01
KJAU 141535Z AUTO 02004KT 10SM OVC031 05/M03 A2996 RMK A01
KJAU 141515Z AUTO VRB03KT 10SM OVC030 05/M03 A2996 RMK A01
KJAU 141455Z AUTO VRB03KT 10SM OVC029 05/M02 A2995 RMK A01
KJAU 141435Z AUTO VRB03KT 10SM OVC030 05/M02 A2995 RMK A01
KJAU 141415Z AUTO 00000KT 10SM FEW027 OVC033 05/M02 A2994 RMK A01
KJAU 141355Z AUTO VRB04KT 10SM BKN032 04/M02 A2993 RMK A01
KJAU 141335Z AUTO 00000KT 10SM BKN031 04/M02 A2992 RMK A01
KJAU 141315Z AUTO 00000KT 10SM OVC030 04/M02 A2992 RMK A01
KJAU 141255Z AUTO 00000KT 10SM BKN030 03/M02 A2991 RMK A01
KJAU 141235Z AUTO VRB03KT 10SM FEW030 SCT035 SCT044 03/M03 A2990 RMK A01
KJAU 141215Z AUTO VRB03KT 10SM BKN037 BKN044 02/M03 A2989 RMK A01
KJAU 141155Z AUTO 00000KT 10SM BKN038 BKN046 02/M03 A2989 RMK A01